sensor_id;sensor_type;location;lat;lon;timestamp;pressure;altitude;pressure_sealevel;temperature;humidity
48824;BME280;34640;53.590;10.054;2022-11-02T00:00:43;101083.81;;;12.97;84.58
48824;BME280;34640;53.590;10.054;2022-11-02T00:03:17;101077.16;;;13.02;84.24
48824;BME280;34640;53.590;10.054;2022-11-02T00:05:51;101080.91;;;13.07;84.14
48824;BME280;34640;53.590;10.054;2022-11-02T00:08:24;101078.22;;;13.06;84.24
48824;BME280;34640;53.590;10.054;2022-11-02T00:10:58;101067.09;;;13.10;84.02
48824;BME280;34640;53.590;10.054;2022-11-02T00:13:33;101060.16;;;13.10;84.01
48824;BME280;34640;53.590;10.054;2022-11-02T00:16:09;101061.13;;;13.12;84.10
48824;BME280;34640;53.590;10.054;2022-11-02T00:18:46;101050.75;;;13.14;83.90
48824;BME280;34640;53.590;10.054;2022-11-02T00:21:22;101044.63;;;13.13;83.97
48824;BME280;34640;53.590;10.054;2022-11-02T00:23:59;101041.28;;;13.16;84.01
48824;BME280;34640;53.590;10.054;2022-11-02T00:26:34;101053.09;;;13.24;83.23
48824;BME280;34640;53.590;10.054;2022-11-02T00:29:10;101050.66;;;13.27;83.00
48824;BME280;34640;53.590;10.054;2022-11-02T00:31:44;101044.16;;;13.21;83.50
48824;BME280;34640;53.590;10.054;2022-11-02T00:34:17;101045.16;;;13.23;83.37
48824;BME280;34640;53.590;10.054;2022-11-02T00:36:52;101046.63;;;13.18;83.64
48824;BME280;34640;53.590;10.054;2022-11-02T00:39:27;101044.59;;;13.28;82.89
48824;BME280;34640;53.590;10.054;2022-11-02T00:42:01;101040.09;;;13.26;82.96
48824;BME280;34640;53.590;10.054;2022-11-02T00:44:36;101030.13;;;13.19;83.70
48824;BME280;34640;53.590;10.054;2022-11-02T00:47:09;101029.66;;;13.26;83.15
48824;BME280;34640;53.590;10.054;2022-11-02T00:49:44;101029.38;;;13.21;83.55
48824;BME280;34640;53.590;10.054;2022-11-02T00:52:17;101028.41;;;13.19;83.67
48824;BME280;34640;53.590;10.054;2022-11-02T00:54:51;101024.88;;;13.19;83.65
48824;BME280;34640;53.590;10.054;2022-11-02T00:57:25;101015.94;;;13.15;83.73
48824;BME280;34640;53.590;10.054;2022-11-02T01:00:00;101025.09;;;13.07;84.25
48824;BME280;34640;53.590;10.054;2022-11-02T01:02:34;101019.06;;;13.08;84.57
48824;BME280;34640;53.590;10.054;2022-11-02T01:05:09;101019.72;;;13.04;84.81
48824;BME280;34640;53.590;10.054;2022-11-02T01:07:43;101018.63;;;13.00;85.37
48824;BME280;34640;53.590;10.054;2022-11-02T01:10:17;101009.56;;;12.94;85.86
48824;BME280;34640;53.590;10.054;2022-11-02T01:12:51;101001.56;;;12.91;85.73
48824;BME280;34640;53.590;10.054;2022-11-02T01:15:26;101006.78;;;12.91;85.99
48824;BME280;34640;53.590;10.054;2022-11-02T01:18:00;101008.50;;;12.90;86.33
48824;BME280;34640;53.590;10.054;2022-11-02T01:20:34;101004.41;;;12.95;85.91
48824;BME280;34640;53.590;10.054;2022-11-02T01:23:08;101002.47;;;12.91;86.16
48824;BME280;34640;53.590;10.054;2022-11-02T01:25:44;100996.91;;;12.85;86.49
48824;BME280;34640;53.590;10.054;2022-11-02T01:28:18;100991.59;;;12.83;86.53
48824;BME280;34640;53.590;10.054;2022-11-02T01:30:53;100993.78;;;12.76;87.35
48824;BME280;34640;53.590;10.054;2022-11-02T01:33:27;100988.38;;;12.73;87.66
48824;BME280;34640;53.590;10.054;2022-11-02T01:36:02;100990.09;;;12.72;87.69
48824;BME280;34640;53.590;10.054;2022-11-02T01:38:36;100981.19;;;12.69;87.88
48824;BME280;34640;53.590;10.054;2022-11-02T01:41:10;100982.91;;;12.68;87.96
48824;BME280;34640;53.590;10.054;2022-11-02T01:43:46;100986.34;;;12.67;88.39
48824;BME280;34640;53.590;10.054;2022-11-02T01:46:24;100981.13;;;12.67;88.31
48824;BME280;34640;53.590;10.054;2022-11-02T01:49:06;100982.09;;;12.69;88.10
48824;BME280;34640;53.590;10.054;2022-11-02T01:51:44;100984.88;;;12.72;87.83
48824;BME280;34640;53.590;10.054;2022-11-02T01:54:22;100972.47;;;12.68;88.03
48824;BME280;34640;53.590;10.054;2022-11-02T01:57:03;100975.16;;;12.70;88.27
48824;BME280;34640;53.590;10.054;2022-11-02T01:59:41;100963.72;;;12.68;88.31
48824;BME280;34640;53.590;10.054;2022-11-02T02:02:19;100952.22;;;12.64;88.70
48824;BME280;34640;53.590;10.054;2022-11-02T02:04:58;100964.53;;;12.67;88.63
48824;BME280;34640;53.590;10.054;2022-11-02T02:07:37;100969.59;;;12.64;88.77
48824;BME280;34640;53.590;10.054;2022-11-02T02:10:11;100967.06;;;12.65;88.76
48824;BME280;34640;53.590;10.054;2022-11-02T02:12:45;100960.06;;;12.64;88.87
48824;BME280;34640;53.590;10.054;2022-11-02T02:15:22;100959.25;;;12.65;88.92
48824;BME280;34640;53.590;10.054;2022-11-02T02:18:02;100963.00;;;12.70;88.68
48824;BME280;34640;53.590;10.054;2022-11-02T02:21:03;100962.19;;;12.71;88.93
48824;BME280;34640;53.590;10.054;2022-11-02T02:24:01;100961.19;;;12.69;89.27
48824;BME280;34640;53.590;10.054;2022-11-02T02:26:48;100955.06;;;12.69;88.79
48824;BME280;34640;53.590;10.054;2022-11-02T02:29:31;100949.09;;;12.71;88.44
48824;BME280;34640;53.590;10.054;2022-11-02T02:32:14;100943.88;;;12.71;88.54
48824;BME280;34640;53.590;10.054;2022-11-02T02:34:52;100940.28;;;12.69;88.70
48824;BME280;34640;53.590;10.054;2022-11-02T02:37:32;100943.00;;;12.71;88.56
48824;BME280;34640;53.590;10.054;2022-11-02T02:40:12;100939.47;;;12.70;88.52
48824;BME280;34640;53.590;10.054;2022-11-02T02:42:51;100949.03;;;12.70;88.51
48824;BME280;34640;53.590;10.054;2022-11-02T02:45:32;100950.81;;;12.71;88.61
48824;BME280;34640;53.590;10.054;2022-11-02T02:48:11;100949.69;;;12.66;90.03
48824;BME280;34640;53.590;10.054;2022-11-02T02:50:48;100953.41;;;12.54;91.37
48824;BME280;34640;53.590;10.054;2022-11-02T02:53:27;100941.75;;;12.48;92.44
48824;BME280;34640;53.590;10.054;2022-11-02T02:56:01;100945.25;;;12.48;92.69
48824;BME280;34640;53.590;10.054;2022-11-02T02:58:43;100929.66;;;12.50;92.33
48824;BME280;34640;53.590;10.054;2022-11-02T03:01:19;100947.38;;;12.55;92.00
48824;BME280;34640;53.590;10.054;2022-11-02T03:03:53;100934.31;;;12.55;92.04
48824;BME280;34640;53.590;10.054;2022-11-02T03:06:28;100940.34;;;12.54;91.89
48824;BME280;34640;53.590;10.054;2022-11-02T03:09:08;100944.59;;;12.52;92.54
48824;BME280;34640;53.590;10.054;2022-11-02T03:11:44;100940.94;;;12.49;93.20
48824;BME280;34640;53.590;10.054;2022-11-02T03:14:32;100940.84;;;12.47;93.81
48824;BME280;34640;53.590;10.054;2022-11-02T03:17:14;100936.44;;;12.46;94.04
48824;BME280;34640;53.590;10.054;2022-11-02T03:19:52;100933.09;;;12.49;93.97
48824;BME280;34640;53.590;10.054;2022-11-02T03:22:32;100938.88;;;12.43;95.14
48824;BME280;34640;53.590;10.054;2022-11-02T03:25:11;100937.94;;;12.27;98.60
48824;BME280;34640;53.590;10.054;2022-11-02T03:27:49;100937.81;;;12.09;100.00
48824;BME280;34640;53.590;10.054;2022-11-02T03:30:29;100929.72;;;12.04;100.00
48824;BME280;34640;53.590;10.054;2022-11-02T03:33:13;100923.13;;;12.11;100.00
48824;BME280;34640;53.590;10.054;2022-11-02T03:35:54;100924.47;;;12.19;100.00
48824;BME280;34640;53.590;10.054;2022-11-02T03:38:33;100927.41;;;12.25;100.00
48824;BME280;34640;53.590;10.054;2022-11-02T03:41:09;100924.00;;;12.26;100.00
48824;BME280;34640;53.590;10.054;2022-11-02T03:43:45;100919.00;;;12.31;100.00
48824;BME280;34640;53.590;10.054;2022-11-02T03:46:21;100917.47;;;12.34;100.00
48824;BME280;34640;53.590;10.054;2022-11-02T03:48:59;100931.25;;;12.32;100.00
48824;BME280;34640;53.590;10.054;2022-11-02T03:51:42;100927.75;;;12.31;100.00
48824;BME280;34640;53.590;10.054;2022-11-02T03:54:23;100924.25;;;12.31;100.00
48824;BME280;34640;53.590;10.054;2022-11-02T03:57:01;100922.59;;;12.33;100.00
48824;BME280;34640;53.590;10.054;2022-11-02T03:59:41;100920.06;;;12.34;100.00
48824;BME280;34640;53.590;10.054;2022-11-02T04:02:16;100931.53;;;12.36;100.00
48824;BME280;34640;53.590;10.054;2022-11-02T04:04:52;100944.19;;;12.45;100.00
48824;BME280;34640;53.590;10.054;2022-11-02T04:07:30;100938.88;;;12.43;100.00
48824;BME280;34640;53.590;10.054;2022-11-02T04:10:30;100938.88;;;12.43;100.00
48824;BME280;34640;53.590;10.054;2022-11-02T04:13:04;100945.81;;;12.43;100.00
48824;BME280;34640;53.590;10.054;2022-11-02T04:15:54;100941.16;;;12.37;100.00
48824;BME280;34640;53.590;10.054;2022-11-02T04:18:28;100937.53;;;12.35;100.00
48824;BME280;34640;53.590;10.054;2022-11-02T04:21:21;100937.28;;;12.31;100.00
48824;BME280;34640;53.590;10.054;2022-11-02T04:23:54;100942.44;;;12.29;100.00
48824;BME280;34640;53.590;10.054;2022-11-02T04:26:46;100944.97;;;12.28;100.00
48824;BME280;34640;53.590;10.054;2022-11-02T04:29:19;100944.06;;;12.27;100.00
48824;BME280;34640;53.590;10.054;2022-11-02T04:31:53;100932.72;;;12.27;100.00
48824;BME280;34640;53.590;10.054;2022-11-02T04:34:27;100950.03;;;12.24;100.00
48824;BME280;34640;53.590;10.054;2022-11-02T04:37:01;100942.91;;;12.22;100.00
48824;BME280;34640;53.590;10.054;2022-11-02T04:39:55;100940.38;;;12.23;100.00
48824;BME280;34640;53.590;10.054;2022-11-02T04:42:27;100945.69;;;12.25;100.00
48824;BME280;34640;53.590;10.054;2022-11-02T04:45:01;100945.78;;;12.27;100.00
48824;BME280;34640;53.590;10.054;2022-11-02T04:47:35;100945.53;;;12.22;100.00
48824;BME280;34640;53.590;10.054;2022-11-02T04:50:09;100938.25;;;12.16;100.00
48824;BME280;34640;53.590;10.054;2022-11-02T04:52:44;100932.97;;;12.15;100.00
48824;BME280;34640;53.590;10.054;2022-11-02T04:55:18;100938.19;;;12.15;100.00
48824;BME280;34640;53.590;10.054;2022-11-02T04:57:51;100932.84;;;12.13;100.00
48824;BME280;34640;53.590;10.054;2022-11-02T05:00:25;100937.06;;;12.11;100.00
48824;BME280;34640;53.590;10.054;2022-11-02T05:02:59;100940.59;;;12.12;100.00
48824;BME280;34640;53.590;10.054;2022-11-02T05:05:32;100943.19;;;12.12;100.00
48824;BME280;34640;53.590;10.054;2022-11-02T05:08:08;100942.22;;;12.10;100.00
48824;BME280;34640;53.590;10.054;2022-11-02T05:10:42;100942.13;;;12.08;100.00
48824;BME280;34640;53.590;10.054;2022-11-02T05:13:15;100935.13;;;12.07;100.00
48824;BME280;34640;53.590;10.054;2022-11-02T05:15:49;100937.91;;;12.10;100.00
48824;BME280;34640;53.590;10.054;2022-11-02T05:18:24;100936.34;;;12.14;100.00
48824;BME280;34640;53.590;10.054;2022-11-02T05:20:59;100943.41;;;12.15;100.00
48824;BME280;34640;53.590;10.054;2022-11-02T05:23:34;100939.69;;;12.11;100.00
48824;BME280;34640;53.590;10.054;2022-11-02T05:26:10;100943.03;;;12.09;100.00
48824;BME280;34640;53.590;10.054;2022-11-02T05:28:43;100944.00;;;12.11;100.00
48824;BME280;34640;53.590;10.054;2022-11-02T05:31:17;100944.00;;;12.11;100.00
48824;BME280;34640;53.590;10.054;2022-11-02T05:33:51;100935.38;;;12.12;100.00
48824;BME280;34640;53.590;10.054;2022-11-02T05:36:25;100932.03;;;12.14;100.00
48824;BME280;34640;53.590;10.054;2022-11-02T05:39:00;100929.06;;;12.08;100.00
48824;BME280;34640;53.590;10.054;2022-11-02T05:41:34;100938.38;;;12.03;100.00
48824;BME280;34640;53.590;10.054;2022-11-02T05:44:07;100932.00;;;11.98;100.00
48824;BME280;34640;53.590;10.054;2022-11-02T05:46:41;100933.72;;;11.98;100.00
48824;BME280;34640;53.590;10.054;2022-11-02T05:49:15;100934.44;;;11.95;100.00
48824;BME280;34640;53.590;10.054;2022-11-02T05:51:49;100935.78;;;11.88;100.00
48824;BME280;34640;53.590;10.054;2022-11-02T05:54:24;100940.28;;;11.91;100.00
48824;BME280;34640;53.590;10.054;2022-11-02T05:56:57;100937.66;;;11.91;100.00
48824;BME280;34640;53.590;10.054;2022-11-02T05:59:31;100934.16;;;11.90;100.00
48824;BME280;34640;53.590;10.054;2022-11-02T06:02:05;100947.19;;;11.90;100.00
48824;BME280;34640;53.590;10.054;2022-11-02T06:04:38;100937.75;;;11.92;100.00
48824;BME280;34640;53.590;10.054;2022-11-02T06:07:13;100942.19;;;11.93;100.00
48824;BME280;34640;53.590;10.054;2022-11-02T06:09:48;100948.38;;;11.96;100.00
48824;BME280;34640;53.590;10.054;2022-11-02T06:12:21;100940.66;;;11.97;100.00
48824;BME280;34640;53.590;10.054;2022-11-02T06:14:55;100936.25;;;11.96;100.00
48824;BME280;34640;53.590;10.054;2022-11-02T06:17:35;100942.59;;;12.01;100.00
48824;BME280;34640;53.590;10.054;2022-11-02T06:20:10;100938.47;;;12.05;100.00
48824;BME280;34640;53.590;10.054;2022-11-02T06:22:44;100944.00;;;12.11;100.00
48824;BME280;34640;53.590;10.054;2022-11-02T06:25:19;100940.06;;;12.17;100.00
48824;BME280;34640;53.590;10.054;2022-11-02T06:27:54;100945.53;;;12.22;100.00
48824;BME280;34640;53.590;10.054;2022-11-02T06:30:28;100951.72;;;12.24;100.00
48824;BME280;34640;53.590;10.054;2022-11-02T06:33:02;100962.25;;;12.26;100.00
48824;BME280;34640;53.590;10.054;2022-11-02T06:35:38;100955.50;;;12.29;100.00
48824;BME280;34640;53.590;10.054;2022-11-02T06:38:12;100960.63;;;12.28;100.00
48824;BME280;34640;53.590;10.054;2022-11-02T06:40:54;100963.31;;;12.29;100.00
48824;BME280;34640;53.590;10.054;2022-11-02T06:43:28;100963.25;;;12.28;100.00
48824;BME280;34640;53.590;10.054;2022-11-02T06:46:01;100963.16;;;12.26;100.00
48824;BME280;34640;53.590;10.054;2022-11-02T06:48:35;100963.06;;;12.24;100.00
48824;BME280;34640;53.590;10.054;2022-11-02T06:51:09;100958.59;;;12.22;100.00
48824;BME280;34640;53.590;10.054;2022-11-02T06:53:42;100964.69;;;12.22;100.00
48824;BME280;34640;53.590;10.054;2022-11-02T06:56:17;100974.34;;;12.23;100.00
48824;BME280;34640;53.590;10.054;2022-11-02T06:58:51;100966.66;;;12.27;100.00
48824;BME280;34640;53.590;10.054;2022-11-02T07:01:25;100966.09;;;12.32;100.00
48824;BME280;34640;53.590;10.054;2022-11-02T07:03:59;100973.31;;;12.36;100.00
48824;BME280;34640;53.590;10.054;2022-11-02T07:06:32;100979.25;;;12.34;100.00
48824;BME280;34640;53.590;10.054;2022-11-02T07:09:06;100974.03;;;12.34;100.00
48824;BME280;34640;53.590;10.054;2022-11-02T07:11:41;100977.72;;;12.37;100.00
48824;BME280;34640;53.590;10.054;2022-11-02T07:14:15;100986.25;;;12.35;100.00
48824;BME280;34640;53.590;10.054;2022-11-02T07:16:48;100975.94;;;12.36;100.00
48824;BME280;34640;53.590;10.054;2022-11-02T07:19:22;100986.78;;;12.44;100.00
48824;BME280;34640;53.590;10.054;2022-11-02T07:21:55;100962.47;;;12.45;100.00
48824;BME280;34640;53.590;10.054;2022-11-02T07:24:29;100974.06;;;12.50;100.00
48824;BME280;34640;53.590;10.054;2022-11-02T07:27:04;100982.88;;;12.52;100.00
48824;BME280;34640;53.590;10.054;2022-11-02T07:29:38;100972.69;;;12.57;100.00
48824;BME280;34640;53.590;10.054;2022-11-02T07:32:12;100980.22;;;12.67;100.00
48824;BME280;34640;53.590;10.054;2022-11-02T07:34:46;100989.22;;;12.72;100.00
48824;BME280;34640;53.590;10.054;2022-11-02T07:37:19;100983.31;;;12.76;100.00
48824;BME280;34640;53.590;10.054;2022-11-02T07:39:53;100984.50;;;12.81;100.00
48824;BME280;34640;53.590;10.054;2022-11-02T07:42:28;100986.53;;;12.87;100.00
48824;BME280;34640;53.590;10.054;2022-11-02T07:45:02;100987.84;;;12.95;100.00
48824;BME280;34640;53.590;10.054;2022-11-02T07:47:40;100988.66;;;12.94;100.00
48824;BME280;34640;53.590;10.054;2022-11-02T07:50:16;100982.75;;;12.98;100.00
48824;BME280;34640;53.590;10.054;2022-11-02T07:52:51;100983.66;;;12.98;100.00
48824;BME280;34640;53.590;10.054;2022-11-02T07:55:27;100991.84;;;13.04;100.00
48824;BME280;34640;53.590;10.054;2022-11-02T07:58:04;100985.22;;;13.11;100.00
48824;BME280;34640;53.590;10.054;2022-11-02T08:00:40;100982.94;;;13.17;100.00
48824;BME280;34640;53.590;10.054;2022-11-02T08:03:13;100988.63;;;13.25;100.00
48824;BME280;34640;53.590;10.054;2022-11-02T08:05:47;100997.28;;;13.24;100.00
48824;BME280;34640;53.590;10.054;2022-11-02T08:08:22;100986.31;;;13.31;100.00
48824;BME280;34640;53.590;10.054;2022-11-02T08:11:03;100987.81;;;13.26;100.00
48824;BME280;34640;53.590;10.054;2022-11-02T08:13:38;100989.66;;;13.28;100.00
48824;BME280;34640;53.590;10.054;2022-11-02T08:16:12;100984.09;;;13.38;99.44
48824;BME280;34640;53.590;10.054;2022-11-02T08:18:46;101001.72;;;13.42;98.62
48824;BME280;34640;53.590;10.054;2022-11-02T08:21:19;100988.09;;;13.48;97.66
48824;BME280;34640;53.590;10.054;2022-11-02T08:23:53;100986.03;;;13.42;97.99
48824;BME280;34640;53.590;10.054;2022-11-02T08:26:30;100981.22;;;13.50;97.23
48824;BME280;34640;53.590;10.054;2022-11-02T08:29:05;100994.84;;;13.44;96.49
48824;BME280;34640;53.590;10.054;2022-11-02T08:31:39;100998.63;;;13.50;96.39
48824;BME280;34640;53.590;10.054;2022-11-02T08:34:12;100997.53;;;13.62;94.92
48824;BME280;34640;53.590;10.054;2022-11-02T08:36:46;101002.53;;;13.58;95.26
48824;BME280;34640;53.590;10.054;2022-11-02T08:39:20;101014.19;;;13.64;95.07
48824;BME280;34640;53.590;10.054;2022-11-02T08:41:53;101014.03;;;13.61;93.89
48824;BME280;34640;53.590;10.054;2022-11-02T08:44:28;101009.19;;;13.51;94.92
48824;BME280;34640;53.590;10.054;2022-11-02T08:47:02;101010.06;;;13.68;94.07
48824;BME280;34640;53.590;10.054;2022-11-02T08:49:40;101017.00;;;13.67;93.90
48824;BME280;34640;53.590;10.054;2022-11-02T08:52:14;101004.59;;;13.81;93.42
48824;BME280;34640;53.590;10.054;2022-11-02T08:54:48;101018.50;;;14.14;92.06
48824;BME280;34640;53.590;10.054;2022-11-02T08:57:21;101011.13;;;14.25;90.13
48824;BME280;34640;53.590;10.054;2022-11-02T08:59:56;101012.78;;;14.05;90.24
48824;BME280;34640;53.590;10.054;2022-11-02T09:02:30;101013.84;;;13.91;91.17
48824;BME280;34640;53.590;10.054;2022-11-02T09:05:04;101020.63;;;14.05;89.63
48824;BME280;34640;53.590;10.054;2022-11-02T09:07:38;101027.28;;;13.98;89.40
48824;BME280;34640;53.590;10.054;2022-11-02T09:10:11;101026.72;;;14.22;88.20
48824;BME280;34640;53.590;10.054;2022-11-02T09:12:45;101032.22;;;14.44;86.47
48824;BME280;34640;53.590;10.054;2022-11-02T09:15:20;101038.09;;;14.40;86.58
48824;BME280;34640;53.590;10.054;2022-11-02T09:17:54;101035.75;;;14.28;87.17
48824;BME280;34640;53.590;10.054;2022-11-02T09:20:28;101022.13;;;14.00;88.60
48824;BME280;34640;53.590;10.054;2022-11-02T09:23:02;101041.97;;;13.95;89.69
48824;BME280;34640;53.590;10.054;2022-11-02T09:25:36;101044.69;;;14.14;88.44
48824;BME280;34640;53.590;10.054;2022-11-02T09:28:10;101049.69;;;14.27;88.59
48824;BME280;34640;53.590;10.054;2022-11-02T09:30:45;101032.25;;;14.10;88.85
48824;BME280;34640;53.590;10.054;2022-11-02T09:33:19;101047.22;;;14.13;87.92
48824;BME280;34640;53.590;10.054;2022-11-02T09:35:53;101052.81;;;14.02;87.92
48824;BME280;34640;53.590;10.054;2022-11-02T09:38:27;101047.53;;;13.85;88.86
48824;BME280;34640;53.590;10.054;2022-11-02T09:41:07;101057.75;;;13.96;89.09
48824;BME280;34640;53.590;10.054;2022-11-02T09:43:52;101055.66;;;14.07;87.94
48824;BME280;34640;53.590;10.054;2022-11-02T09:46:33;101072.03;;;14.03;87.74
48824;BME280;34640;53.590;10.054;2022-11-02T09:49:14;101067.72;;;13.87;88.35
48824;BME280;34640;53.590;10.054;2022-11-02T09:51:50;101057.19;;;13.86;88.20
48824;BME280;34640;53.590;10.054;2022-11-02T09:54:27;101060.78;;;13.88;88.29
48824;BME280;34640;53.590;10.054;2022-11-02T09:57:04;101066.56;;;13.98;87.20
48824;BME280;34640;53.590;10.054;2022-11-02T09:59:39;101069.88;;;13.94;87.11
48824;BME280;34640;53.590;10.054;2022-11-02T10:02:21;101066.94;;;13.88;86.17
48824;BME280;34640;53.590;10.054;2022-11-02T10:05:09;101071.09;;;13.85;86.96
48824;BME280;34640;53.590;10.054;2022-11-02T10:08:01;101066.38;;;13.77;86.97
48824;BME280;34640;53.590;10.054;2022-11-02T10:10:48;101069.22;;;13.82;86.81
48824;BME280;34640;53.590;10.054;2022-11-02T10:13:33;101065.03;;;13.86;86.72
48824;BME280;34640;53.590;10.054;2022-11-02T10:16:13;101083.66;;;13.74;89.24
48824;BME280;34640;53.590;10.054;2022-11-02T10:18:49;101100.09;;;13.55;95.55
48824;BME280;34640;53.590;10.054;2022-11-02T10:21:26;101099.91;;;13.20;100.00
48824;BME280;34640;53.590;10.054;2022-11-02T10:24:08;101116.75;;;12.63;100.00
48824;BME280;34640;53.590;10.054;2022-11-02T10:26:44;101138.03;;;12.24;100.00
48824;BME280;34640;53.590;10.054;2022-11-02T10:29:32;101113.00;;;11.71;100.00
48824;BME280;34640;53.590;10.054;2022-11-02T10:32:10;101109.28;;;11.52;100.00
48824;BME280;34640;53.590;10.054;2022-11-02T10:34:46;101095.03;;;11.47;100.00
48824;BME280;34640;53.590;10.054;2022-11-02T10:37:47;101116.38;;;11.27;100.00
48824;BME280;34640;53.590;10.054;2022-11-02T10:40:38;101106.22;;;11.03;100.00
48824;BME280;34640;53.590;10.054;2022-11-02T10:43:27;101115.16;;;11.07;100.00
48824;BME280;34640;53.590;10.054;2022-11-02T10:46:16;101118.97;;;11.27;100.00
48824;BME280;34640;53.590;10.054;2022-11-02T10:49:00;101119.31;;;11.46;100.00
48824;BME280;34640;53.590;10.054;2022-11-02T10:51:38;101119.13;;;11.71;100.00
48824;BME280;34640;53.590;10.054;2022-11-02T10:54:13;101123.25;;;11.96;100.00
48824;BME280;34640;53.590;10.054;2022-11-02T10:56:55;101122.59;;;12.14;100.00
48824;BME280;34640;53.590;10.054;2022-11-02T10:59:29;101125.16;;;12.42;100.00
48824;BME280;34640;53.590;10.054;2022-11-02T11:02:08;101133.75;;;12.56;100.00
48824;BME280;34640;53.590;10.054;2022-11-02T11:04:43;101125.84;;;12.54;100.00
48824;BME280;34640;53.590;10.054;2022-11-02T11:07:22;101130.13;;;12.38;100.00
48824;BME280;34640;53.590;10.054;2022-11-02T11:09:58;101134.13;;;12.33;100.00
48824;BME280;34640;53.590;10.054;2022-11-02T11:12:36;101134.44;;;12.37;100.00
48824;BME280;34640;53.590;10.054;2022-11-02T11:15:21;101137.31;;;12.42;100.00
48824;BME280;34640;53.590;10.054;2022-11-02T11:18:18;101157.66;;;12.47;100.00
48824;BME280;34640;53.590;10.054;2022-11-02T11:21:12;101154.75;;;12.58;100.00
48824;BME280;34640;53.590;10.054;2022-11-02T11:23:47;101153.59;;;12.67;100.00
48824;BME280;34640;53.590;10.054;2022-11-02T11:26:27;101149.69;;;12.75;100.00
48824;BME280;34640;53.590;10.054;2022-11-02T11:29:20;101149.16;;;12.66;100.00
48824;BME280;34640;53.590;10.054;2022-11-02T11:31:54;101139.16;;;12.74;100.00
48824;BME280;34640;53.590;10.054;2022-11-02T11:34:30;101162.50;;;12.56;100.00
48824;BME280;34640;53.590;10.054;2022-11-02T11:37:07;101160.44;;;12.65;100.00
48824;BME280;34640;53.590;10.054;2022-11-02T11:39:44;101175.22;;;12.50;100.00
48824;BME280;34640;53.590;10.054;2022-11-02T11:42:28;101173.59;;;12.52;100.00
48824;BME280;34640;53.590;10.054;2022-11-02T11:45:05;101177.00;;;12.66;100.00
48824;BME280;34640;53.590;10.054;2022-11-02T11:47:41;101193.84;;;12.71;100.00
48824;BME280;34640;53.590;10.054;2022-11-02T11:50:15;101183.00;;;12.79;100.00
48824;BME280;34640;53.590;10.054;2022-11-02T11:53:15;101185.19;;;12.72;100.00
48824;BME280;34640;53.590;10.054;2022-11-02T11:55:53;101189.63;;;12.73;100.00
48824;BME280;34640;53.590;10.054;2022-11-02T11:58:30;101195.22;;;12.64;100.00
48824;BME280;34640;53.590;10.054;2022-11-02T12:01:06;101191.78;;;12.65;100.00
48824;BME280;34640;53.590;10.054;2022-11-02T12:03:52;101206.91;;;12.71;100.00
48824;BME280;34640;53.590;10.054;2022-11-02T12:06:31;101211.53;;;12.60;100.00
48824;BME280;34640;53.590;10.054;2022-11-02T12:09:16;101194.56;;;12.53;100.00
48824;BME280;34640;53.590;10.054;2022-11-02T12:11:59;101211.69;;;12.19;100.00
48824;BME280;34640;53.590;10.054;2022-11-02T12:14:47;101202.16;;;11.91;100.00
48824;BME280;34640;53.590;10.054;2022-11-02T12:17:34;101190.75;;;11.76;100.00
48824;BME280;34640;53.590;10.054;2022-11-02T12:20:35;101194.00;;;11.72;100.00
48824;BME280;34640;53.590;10.054;2022-11-02T12:23:25;101187.75;;;11.70;100.00
48824;BME280;34640;53.590;10.054;2022-11-02T12:26:19;101209.66;;;11.72;100.00
48824;BME280;34640;53.590;10.054;2022-11-02T12:29:05;101208.09;;;11.89;100.00
48824;BME280;34640;53.590;10.054;2022-11-02T12:31:43;101216.25;;;12.08;100.00
48824;BME280;34640;53.590;10.054;2022-11-02T12:34:29;101222.28;;;12.07;100.00
48824;BME280;34640;53.590;10.054;2022-11-02T12:37:12;101229.44;;;12.39;100.00
48824;BME280;34640;53.590;10.054;2022-11-02T12:40:23;101219.34;;;12.45;100.00
48824;BME280;34640;53.590;10.054;2022-11-02T12:43:18;101233.84;;;12.55;100.00
48824;BME280;34640;53.590;10.054;2022-11-02T12:45:59;101230.19;;;12.81;100.00
48824;BME280;34640;53.590;10.054;2022-11-02T12:48:43;101240.63;;;12.81;100.00
48824;BME280;34640;53.590;10.054;2022-11-02T12:51:22;101232.97;;;12.84;100.00
48824;BME280;34640;53.590;10.054;2022-11-02T12:54:05;101241.31;;;12.93;100.00
48824;BME280;34640;53.590;10.054;2022-11-02T12:56:45;101246.97;;;13.15;100.00
48824;BME280;34640;53.590;10.054;2022-11-02T12:59:22;101244.72;;;13.36;100.00
48824;BME280;34640;53.590;10.054;2022-11-02T13:02:02;101246.75;;;13.42;100.00
48824;BME280;34640;53.590;10.054;2022-11-02T13:04:47;101248.03;;;13.49;100.00
48824;BME280;34640;53.590;10.054;2022-11-02T13:07:26;101249.66;;;13.47;100.00
48824;BME280;34640;53.590;10.054;2022-11-02T13:10:11;101253.78;;;13.43;100.00
48824;BME280;34640;53.590;10.054;2022-11-02T13:12:47;101255.25;;;13.38;100.00
48824;BME280;34640;53.590;10.054;2022-11-02T13:15:24;101263.34;;;13.26;100.00
48824;BME280;34640;53.590;10.054;2022-11-02T13:18:04;101277.19;;;13.10;100.00
48824;BME280;34640;53.590;10.054;2022-11-02T13:20:42;101291.63;;;13.19;100.00
48824;BME280;34640;53.590;10.054;2022-11-02T13:23:31;101312.19;;;13.12;100.00
48824;BME280;34640;53.590;10.054;2022-11-02T13:26:11;101317.59;;;13.15;100.00